Time;durP1;ratioP1;P1;durP2;ratioP2;P2;SDS_P1;SDS_P2;PMS_P1;PMS_P2;Temp;Humidity;BMP_temperature;BMP_pressure;BME280_temperature;BME280_humidity;BME280_pressure;Samples;Min_cycle;Max_cycle;Signal;HPM_P1;HPM_P2
2021/09/04 00:01:03;;;;;;;3.50;3.30;;;13.10;99.90;;;;;;4897648;29;20808;-75
2021/09/04 00:03:31;;;;;;;6.30;3.83;;;13.10;99.90;;;;;;4897297;29;20397;-75
2021/09/04 00:06:01;;;;;;;9.77;3.50;;;13.20;99.90;;;;;;4896999;29;20566;-75
2021/09/04 00:08:30;;;;;;;5.50;5.13;;;13.10;99.90;;;;;;4897308;29;20521;-75
2021/09/04 00:11:00;;;;;;;4.97;3.00;;;13.10;99.90;;;;;;4897269;29;20417;-75
2021/09/04 00:13:28;;;;;;;3.60;3.23;;;13.00;99.90;;;;;;4897000;29;20454;-75
2021/09/04 00:15:56;;;;;;;7.30;4.73;;;13.00;99.90;;;;;;4896895;29;20450;-73
2021/09/04 00:18:29;;;;;;;4.03;3.57;;;13.00;99.90;;;;;;4897028;29;20972;-73
2021/09/04 00:20:57;;;;;;;6.73;5.30;;;13.00;99.90;;;;;;4897749;29;20467;-74
2021/09/04 00:23:25;;;;;;;6.10;3.87;;;13.00;99.90;;;;;;4897824;29;20470;-74
2021/09/04 00:25:54;;;;;;;5.80;5.20;;;12.90;99.90;;;;;;4897713;29;20454;-74
2021/09/04 00:28:22;;;;;;;4.57;4.17;;;13.00;99.90;;;;;;4897361;29;20470;-74
2021/09/04 00:30:50;;;;;;;11.67;3.10;;;13.00;99.90;;;;;;4897540;29;20405;-73
2021/09/04 00:33:19;;;;;;;5.30;3.30;;;12.90;99.90;;;;;;4879992;29;20506;-74
2021/09/04 00:35:47;;;;;;;6.87;4.57;;;12.80;99.90;;;;;;4896669;29;20494;-73
2021/09/04 00:38:15;;;;;;;7.43;3.50;;;12.80;99.90;;;;;;4896932;29;20843;-74
2021/09/04 00:40:43;;;;;;;2.83;2.60;;;12.80;99.90;;;;;;4897195;29;20833;-74
2021/09/04 00:43:12;;;;;;;4.30;3.77;;;12.90;99.90;;;;;;4896612;29;20434;-74
2021/09/04 00:45:40;;;;;;;9.77;3.30;;;12.80;99.90;;;;;;4896829;29;20527;-75
2021/09/04 00:48:08;;;;;;;4.40;3.40;;;12.80;99.90;;;;;;4896821;29;20458;-74
2021/09/04 00:50:37;;;;;;;3.53;3.20;;;12.80;99.90;;;;;;4897216;29;20956;-74
2021/09/04 00:53:06;;;;;;;5.70;2.90;;;12.70;99.90;;;;;;4900401;29;20456;-74
2021/09/04 00:55:34;;;;;;;3.80;2.50;;;12.60;99.90;;;;;;4900070;29;20450;-74
2021/09/04 00:58:04;;;;;;;4.00;3.60;;;12.60;99.90;;;;;;4900157;29;20964;-75
2021/09/04 01:00:35;;;;;;;4.03;3.40;;;12.60;99.90;;;;;;4900220;29;20868;-74
2021/09/04 01:03:03;;;;;;;5.57;5.00;;;12.50;99.90;;;;;;4900175;29;20401;-74
2021/09/04 01:05:32;;;;;;;3.83;3.00;;;12.50;99.90;;;;;;4900021;29;20463;-74
2021/09/04 01:08:02;;;;;;;3.73;3.43;;;12.40;99.90;;;;;;4900075;29;20840;-73
2021/09/04 01:10:32;;;;;;;4.33;3.70;;;12.40;99.90;;;;;;4899930;29;20407;-74
2021/09/04 01:13:01;;;;;;;3.00;2.20;;;12.40;99.90;;;;;;4899783;29;20525;-74
2021/09/04 01:15:29;;;;;;;5.40;3.03;;;12.40;99.90;;;;;;4899856;29;20831;-74
2021/09/04 01:18:02;;;;;;;2.90;2.30;;;12.40;99.90;;;;;;4899865;29;20409;-74
2021/09/04 01:20:30;;;;;;;6.40;3.80;;;12.30;99.90;;;;;;4899935;29;20476;-74
2021/09/04 01:22:58;;;;;;;3.63;3.10;;;12.40;99.90;;;;;;4899708;29;20434;-74
2021/09/04 01:25:28;;;;;;;3.07;2.77;;;12.40;99.90;;;;;;4899465;29;20429;-73
2021/09/04 01:27:59;;;;;;;5.67;3.37;;;12.40;99.90;;;;;;4900131;29;20993;-74
2021/09/04 01:30:28;;;;;;;4.03;3.57;;;12.40;99.90;;;;;;4899655;29;20569;-74
2021/09/04 01:32:56;;;;;;;3.17;2.13;;;12.40;99.90;;;;;;4899580;29;20980;-74
2021/09/04 01:35:25;;;;;;;2.67;2.47;;;12.30;99.90;;;;;;4900014;29;20454;-74
2021/09/04 01:37:54;;;;;;;2.70;2.03;;;12.40;99.90;;;;;;4899796;29;20401;-74
2021/09/04 01:40:22;;;;;;;3.83;2.90;;;12.30;99.90;;;;;;4899698;29;20423;-74
2021/09/04 01:42:50;;;;;;;6.30;3.40;;;12.30;99.90;;;;;;4899719;29;20824;-74
2021/09/04 01:45:20;;;;;;;3.50;3.20;;;12.40;99.90;;;;;;4899769;29;20906;-74
2021/09/04 01:47:48;;;;;;;3.47;3.17;;;12.30;99.90;;;;;;4899883;29;20431;-74
2021/09/04 01:50:16;;;;;;;5.03;1.70;;;12.30;99.90;;;;;;4899930;29;20462;-73
2021/09/04 01:52:47;;;;;;;3.97;3.27;;;12.30;99.90;;;;;;4899515;29;20393;-73
2021/09/04 01:55:16;;;;;;;6.20;4.33;;;12.30;99.90;;;;;;4899432;29;20458;-74
2021/09/04 01:57:45;;;;;;;4.13;3.13;;;12.20;99.90;;;;;;4899547;29;20513;-74
2021/09/04 02:00:15;;;;;;;6.03;4.00;;;12.20;99.90;;;;;;4899739;29;20401;-74
2021/09/04 02:02:45;;;;;;;4.77;3.43;;;12.30;99.90;;;;;;4899175;29;20401;-74
2021/09/04 02:05:13;;;;;;;1.97;1.83;;;12.30;99.90;;;;;;4899502;29;21026;-74
2021/09/04 02:07:41;;;;;;;3.90;2.40;;;12.40;99.90;;;;;;4899483;29;20480;-74
2021/09/04 02:10:11;;;;;;;4.60;3.60;;;12.50;99.90;;;;;;4882562;29;20549;-74
2021/09/04 02:12:39;;;;;;;4.73;4.33;;;12.50;99.90;;;;;;4899078;29;20902;-74
2021/09/04 02:15:10;;;;;;;7.20;4.00;;;12.60;99.90;;;;;;4898441;29;20422;-74
2021/09/04 02:17:38;;;;;;;5.77;5.27;;;12.60;99.90;;;;;;4899089;29;20414;-74
2021/09/04 02:20:08;;;;;;;4.63;3.10;;;12.60;99.90;;;;;;4898953;29;20401;-75
2021/09/04 02:22:37;;;;;;;5.90;2.67;;;12.70;99.90;;;;;;4899036;29;20419;-74
2021/09/04 02:25:07;;;;;;;6.20;3.67;;;12.70;99.90;;;;;;4899706;29;20397;-75
2021/09/04 02:27:37;;;;;;;4.23;2.57;;;12.70;99.90;;;;;;4899238;29;20426;-75
2021/09/04 02:30:07;;;;;;;5.70;2.30;;;12.70;99.90;;;;;;4899195;29;20461;-75
2021/09/04 02:32:37;;;;;;;4.00;3.23;;;12.60;99.90;;;;;;4882275;29;20953;-75
2021/09/04 02:35:08;;;;;;;4.57;2.03;;;12.60;99.90;;;;;;4898941;29;20477;-75
2021/09/04 02:37:36;;;;;;;5.43;4.93;;;12.50;99.90;;;;;;4898861;29;20885;-74
2021/09/04 02:40:05;;;;;;;3.80;3.50;;;12.40;99.90;;;;;;4898641;29;20867;-74
2021/09/04 02:42:34;;;;;;;3.90;2.63;;;12.40;99.90;;;;;;4899043;29;20411;-74
2021/09/04 02:45:03;;;;;;;4.77;3.13;;;12.30;99.90;;;;;;4899214;29;20809;-74
2021/09/04 02:47:32;;;;;;;6.43;4.70;;;12.20;99.90;;;;;;4898977;29;20407;-74
2021/09/04 02:50:00;;;;;;;3.03;2.77;;;12.20;99.90;;;;;;4898527;29;20433;-74
2021/09/04 02:52:30;;;;;;;3.43;3.07;;;12.20;99.90;;;;;;4881329;29;20413;-74
2021/09/04 02:54:58;;;;;;;5.30;3.50;;;12.10;99.90;;;;;;4898062;29;20413;-74
2021/09/04 02:57:28;;;;;;;2.87;2.67;;;12.00;99.90;;;;;;4943328;23;20467;-74
2021/09/04 02:59:56;;;;;;;3.70;2.30;;;12.00;99.90;;;;;;4927833;29;20519;-75
2021/09/04 03:02:25;;;;;;;4.50;4.10;;;12.00;99.90;;;;;;4935898;29;20509;-74
2021/09/04 03:04:54;;;;;;;7.27;2.50;;;12.10;99.90;;;;;;4932355;29;20440;-74
2021/09/04 03:07:23;;;;;;;3.30;3.10;;;12.10;99.90;;;;;;4906639;29;20981;-74
2021/09/04 03:09:53;;;;;;;2.40;2.20;;;12.00;99.90;;;;;;4901203;29;20440;-74
2021/09/04 03:12:21;;;;;;;4.93;3.17;;;12.00;99.90;;;;;;4918708;29;20441;-75
2021/09/04 03:14:50;;;;;;;3.43;2.60;;;12.00;99.90;;;;;;4900784;29;20447;-75
2021/09/04 03:17:19;;;;;;;7.93;3.13;;;11.90;99.90;;;;;;4918774;29;20449;-75
2021/09/04 03:19:50;;;;;;;3.90;2.50;;;12.00;99.90;;;;;;4929267;29;20414;-75
2021/09/04 03:22:18;;;;;;;3.53;2.10;;;12.00;99.90;;;;;;4930443;29;20461;-74
2021/09/04 03:24:48;;;;;;;2.43;2.20;;;12.00;99.90;;;;;;4913267;29;20428;-74
2021/09/04 03:27:18;;;;;;;1.30;1.20;;;11.90;99.90;;;;;;4932169;29;20428;-74
2021/09/04 03:29:46;;;;;;;4.07;3.27;;;11.80;99.90;;;;;;4933112;29;20461;-75
2021/09/04 03:32:15;;;;;;;4.10;2.30;;;11.90;99.90;;;;;;4932903;29;20402;-77
2021/09/04 03:34:44;;;;;;;2.00;1.27;;;12.00;99.90;;;;;;4916257;29;20422;-74
2021/09/04 03:37:12;;;;;;;2.20;2.10;;;12.00;99.90;;;;;;4933692;29;20460;-74
2021/09/04 03:39:40;;;;;;;2.50;1.80;;;12.00;99.90;;;;;;4918442;29;20447;-73
2021/09/04 03:42:10;;;;;;;2.90;2.30;;;12.00;99.90;;;;;;4933686;29;20464;-74
2021/09/04 03:44:40;;;;;;;6.07;4.60;;;12.00;99.90;;;;;;4923831;29;20748;-75
2021/09/04 03:47:09;;;;;;;3.90;2.23;;;12.00;99.90;;;;;;4916560;29;20455;-75
2021/09/04 03:49:38;;;;;;;2.93;2.23;;;12.00;99.90;;;;;;4916517;29;20401;-75
2021/09/04 03:52:06;;;;;;;3.10;2.80;;;12.00;99.90;;;;;;4916447;29;20429;-74
2021/09/04 03:54:34;;;;;;;3.03;2.80;;;12.00;99.90;;;;;;4899847;29;20449;-75
2021/09/04 03:57:04;;;;;;;2.40;2.00;;;12.10;99.90;;;;;;4916484;29;20457;-75
2021/09/04 03:59:32;;;;;;;4.30;3.90;;;12.10;99.90;;;;;;4916600;29;20509;-75
2021/09/04 04:02:02;;;;;;;2.87;2.50;;;12.10;99.90;;;;;;4916696;29;20429;-77
2021/09/04 04:04:31;;;;;;;2.57;1.83;;;12.10;99.90;;;;;;4918561;29;20438;-76
2021/09/04 04:06:59;;;;;;;3.87;2.27;;;12.20;99.90;;;;;;4916304;29;20453;-74
2021/09/04 04:09:30;;;;;;;3.17;2.73;;;12.20;99.90;;;;;;4899466;29;20422;-75
2021/09/04 04:11:58;;;;;;;3.60;2.90;;;12.20;99.90;;;;;;4916765;29;20452;-75
2021/09/04 04:14:26;;;;;;;5.00;2.80;;;12.20;99.90;;;;;;4917011;29;20410;-75
2021/09/04 04:16:54;;;;;;;3.03;2.67;;;12.10;99.90;;;;;;4899267;29;20440;-75
2021/09/04 04:19:24;;;;;;;3.67;3.30;;;12.10;99.90;;;;;;4899764;29;20404;-75
2021/09/04 04:21:53;;;;;;;2.77;2.50;;;12.10;99.90;;;;;;4916368;29;20401;-75
2021/09/04 04:24:21;;;;;;;3.57;1.97;;;12.10;99.90;;;;;;4916149;29;20425;-75
2021/09/04 04:26:49;;;;;;;4.00;3.30;;;12.10;99.90;;;;;;4920128;29;20465;-75
2021/09/04 04:29:18;;;;;;;3.87;2.87;;;12.10;99.90;;;;;;4920056;29;20388;-74
2021/09/04 04:31:47;;;;;;;3.73;3.43;;;12.20;99.90;;;;;;4921072;29;20909;-75
2021/09/04 04:34:15;;;;;;;4.23;3.20;;;12.20;99.90;;;;;;4920190;29;20432;-75
2021/09/04 04:36:46;;;;;;;4.50;3.60;;;12.20;99.90;;;;;;4919710;29;20453;-75
2021/09/04 04:39:15;;;;;;;4.83;4.37;;;12.30;99.90;;;;;;4919863;29;20967;-76
2021/09/04 04:41:43;;;;;;;3.13;2.33;;;12.40;99.90;;;;;;4919582;29;20484;-76
2021/09/04 04:44:11;;;;;;;4.80;3.20;;;12.30;99.90;;;;;;4920004;29;20410;-75
2021/09/04 04:46:39;;;;;;;4.30;2.57;;;12.40;99.90;;;;;;4919614;29;20503;-75
2021/09/04 04:49:07;;;;;;;4.03;3.10;;;12.50;99.90;;;;;;4919577;29;20430;-75
2021/09/04 04:51:38;;;;;;;2.27;1.40;;;12.50;99.90;;;;;;4919638;29;20978;-75
2021/09/04 04:54:07;;;;;;;3.00;2.80;;;12.60;99.90;;;;;;4902603;29;20476;-75
2021/09/04 04:56:35;;;;;;;3.27;1.43;;;12.50;99.90;;;;;;4919312;29;20491;-74
2021/09/04 04:59:03;;;;;;;3.03;2.83;;;12.50;99.90;;;;;;4919583;29;20445;-76
2021/09/04 05:01:33;;;;;;;4.00;2.13;;;12.50;99.90;;;;;;4919083;29;20394;-75
2021/09/04 05:04:05;;;;;;;2.70;2.50;;;12.50;99.90;;;;;;4919856;29;20438;-75
2021/09/04 05:06:34;;;;;;;1.93;1.83;;;12.40;99.90;;;;;;4902332;29;20465;-75
2021/09/04 05:09:02;;;;;;;4.40;1.63;;;12.30;99.90;;;;;;4919312;29;20425;-75
2021/09/04 05:11:32;;;;;;;1.77;1.10;;;12.30;99.90;;;;;;4919438;29;20984;-75
2021/09/04 05:14:01;;;;;;;1.40;1.30;;;12.40;99.90;;;;;;4919325;29;20424;-75
2021/09/04 05:16:30;;;;;;;2.67;1.60;;;12.40;99.90;;;;;;4918640;29;20888;-75
2021/09/04 05:18:58;;;;;;;5.07;3.13;;;12.40;99.90;;;;;;4919177;29;20824;-75
2021/09/04 05:21:26;;;;;;;3.33;3.13;;;12.40;99.90;;;;;;4902301;29;20467;-75
2021/09/04 05:23:54;;;;;;;2.60;2.40;;;12.40;99.90;;;;;;4918875;29;20421;-75
2021/09/04 05:26:22;;;;;;;4.20;3.20;;;12.40;99.90;;;;;;4901905;29;20487;-75
2021/09/04 05:28:52;;;;;;;1.93;1.83;;;12.50;99.90;;;;;;4918729;29;20400;-75
2021/09/04 05:31:20;;;;;;;4.10;2.40;;;12.60;99.90;;;;;;4918943;29;20820;-76
2021/09/04 05:33:49;;;;;;;3.50;3.20;;;12.70;99.90;;;;;;4919009;29;20460;-75
2021/09/04 05:36:17;;;;;;;2.53;2.00;;;12.70;99.90;;;;;;4918145;29;20481;-75
2021/09/04 05:38:45;;;;;;;4.20;3.70;;;12.60;99.90;;;;;;4919132;29;20798;-75
2021/09/04 05:41:13;;;;;;;4.67;2.60;;;12.60;99.90;;;;;;4902251;29;20400;-74
2021/09/04 05:43:41;;;;;;;4.70;2.10;;;12.60;99.90;;;;;;4919790;29;20389;-74
2021/09/04 05:46:10;;;;;;;2.10;1.80;;;12.50;99.90;;;;;;4919235;29;20523;-75
2021/09/04 05:48:39;;;;;;;3.00;2.40;;;12.70;99.90;;;;;;4919053;29;20407;-74
2021/09/04 05:51:07;;;;;;;5.43;4.07;;;12.90;99.90;;;;;;4919317;29;20436;-75
2021/09/04 05:53:35;;;;;;;4.00;3.60;;;12.90;99.90;;;;;;4918901;29;20384;-75
2021/09/04 05:56:03;;;;;;;4.50;2.83;;;13.00;99.90;;;;;;4919003;29;20461;-75
2021/09/04 05:58:31;;;;;;;1.93;1.80;;;13.00;99.90;;;;;;4919397;29;20411;-74
2021/09/04 06:00:59;;;;;;;8.17;4.77;;;12.90;99.90;;;;;;4901287;29;20412;-73
2021/09/04 06:03:29;;;;;;;3.50;1.63;;;13.00;99.90;;;;;;4918466;29;20491;-73
2021/09/04 06:06:00;;;;;;;1.83;1.13;;;13.10;99.90;;;;;;4918162;29;20432;-73
2021/09/04 06:08:28;;;;;;;2.33;1.17;;;13.10;99.90;;;;;;4917765;29;20416;-73
2021/09/04 06:10:56;;;;;;;2.70;2.50;;;13.10;99.90;;;;;;4901021;29;20956;-73
2021/09/04 06:13:24;;;;;;;2.70;2.20;;;13.10;99.90;;;;;;4917947;29;20426;-72
2021/09/04 06:15:52;;;;;;;6.07;2.53;;;13.10;99.90;;;;;;4901038;29;20631;-72
2021/09/04 06:18:21;;;;;;;4.07;2.93;;;13.00;99.90;;;;;;4917899;29;20441;-74
2021/09/04 06:20:51;;;;;;;5.70;2.23;;;13.00;99.90;;;;;;4918094;29;20918;-74
2021/09/04 06:23:19;;;;;;;2.47;2.23;;;13.00;99.90;;;;;;4919836;29;20492;-72
2021/09/04 06:25:47;;;;;;;3.43;2.67;;;13.10;99.90;;;;;;4909338;29;20528;-72
2021/09/04 06:28:15;;;;;;;4.80;2.80;;;13.10;99.90;;;;;;4925127;29;20392;-74
2021/09/04 06:30:43;;;;;;;3.27;2.10;;;13.30;99.90;;;;;;4905011;29;20892;-72
2021/09/04 06:33:12;;;;;;;3.93;2.83;;;13.20;99.90;;;;;;4921430;29;20488;-73
2021/09/04 06:35:40;;;;;;;1.93;1.20;;;13.30;99.90;;;;;;4921638;29;20435;-72
2021/09/04 06:38:09;;;;;;;3.60;2.43;;;13.40;99.90;;;;;;4921840;29;20460;-75
2021/09/04 06:40:38;;;;;;;5.20;2.03;;;13.40;99.90;;;;;;4923484;29;20430;-72
2021/09/04 06:43:06;;;;;;;3.90;3.00;;;13.50;99.90;;;;;;4925413;29;20436;-73
2021/09/04 06:45:34;;;;;;;3.20;2.00;;;13.60;99.90;;;;;;4923999;29;20400;-72
2021/09/04 06:48:02;;;;;;;2.43;1.50;;;13.60;99.90;;;;;;4922952;29;20407;-73
2021/09/04 06:50:31;;;;;;;6.60;3.13;;;13.70;99.90;;;;;;4922767;29;20429;-75
2021/09/04 06:53:01;;;;;;;4.40;2.83;;;13.80;99.90;;;;;;4917400;29;20454;-74
2021/09/04 06:55:30;;;;;;;3.90;3.60;;;13.80;99.90;;;;;;4900454;29;20789;-76
2021/09/04 06:57:59;;;;;;;2.93;2.07;;;13.80;99.90;;;;;;4918199;29;20416;-74
2021/09/04 07:00:27;;;;;;;3.43;1.90;;;13.90;99.90;;;;;;4917837;29;20425;-76
2021/09/04 07:02:55;;;;;;;5.80;2.77;;;14.00;99.90;;;;;;4917882;29;20401;-75
2021/09/04 07:05:26;;;;;;;5.63;4.30;;;14.10;99.90;;;;;;4917467;29;20395;-76
2021/09/04 07:07:54;;;;;;;2.97;2.77;;;14.00;99.90;;;;;;4900706;29;20526;-77
2021/09/04 07:10:23;;;;;;;3.73;2.63;;;14.00;99.90;;;;;;4917555;29;20424;-75
2021/09/04 07:12:52;;;;;;;2.30;1.07;;;14.10;99.90;;;;;;4917820;29;20462;-76
2021/09/04 07:15:20;;;;;;;3.70;2.50;;;14.30;99.90;;;;;;4919284;29;20528;-77
2021/09/04 07:17:48;;;;;;;5.93;4.03;;;14.40;99.90;;;;;;4906391;29;20507;-77
2021/09/04 07:20:16;;;;;;;3.60;2.93;;;14.30;99.90;;;;;;4927388;29;20425;-77
2021/09/04 07:22:46;;;;;;;2.57;2.33;;;14.30;99.90;;;;;;4908479;29;20477;-77
2021/09/04 07:25:15;;;;;;;1.67;1.57;;;14.30;99.90;;;;;;4917675;29;20425;-76
2021/09/04 07:27:43;;;;;;;5.07;4.17;;;14.20;99.90;;;;;;4901592;29;20440;-77
2021/09/04 07:30:14;;;;;;;2.50;1.80;;;14.10;99.90;;;;;;4900068;29;20400;-76
2021/09/04 07:32:42;;;;;;;4.23;2.33;;;14.10;99.90;;;;;;4916637;29;20855;-76
2021/09/04 07:35:11;;;;;;;2.30;1.83;;;14.10;99.90;;;;;;4917029;29;20943;-77
2021/09/04 07:37:39;;;;;;;3.00;2.20;;;14.20;99.90;;;;;;4917859;29;20439;-76
2021/09/04 07:40:08;;;;;;;2.73;2.20;;;14.30;99.90;;;;;;4916996;29;20433;-77
2021/09/04 07:42:37;;;;;;;1.80;1.67;;;14.50;99.90;;;;;;4917447;29;20437;-77
2021/09/04 07:45:06;;;;;;;5.80;2.83;;;14.60;99.90;;;;;;4900269;29;20405;-77
2021/09/04 07:47:35;;;;;;;3.40;2.33;;;14.70;99.90;;;;;;4900898;29;20814;-76
2021/09/04 07:50:04;;;;;;;4.73;2.93;;;14.80;99.90;;;;;;4916991;29;20459;-77
2021/09/04 07:52:33;;;;;;;2.33;1.73;;;15.00;99.90;;;;;;4901064;29;20527;-77
2021/09/04 07:55:01;;;;;;;6.30;3.80;;;15.10;99.90;;;;;;4900621;29;20499;-77
2021/09/04 07:57:29;;;;;;;5.00;3.90;;;15.30;99.90;;;;;;4900248;29;20499;-77
2021/09/04 07:59:57;;;;;;;1.80;1.17;;;15.50;99.90;;;;;;4901218;29;20919;-77
2021/09/04 08:02:26;;;;;;;5.40;2.80;;;15.50;99.90;;;;;;4917197;29;20388;-77
2021/09/04 08:04:55;;;;;;;3.57;2.07;;;15.60;99.90;;;;;;4917396;29;20998;-77
2021/09/04 08:07:24;;;;;;;4.30;3.03;;;15.60;99.90;;;;;;4917466;29;20458;-77
2021/09/04 08:09:52;;;;;;;2.83;2.53;;;15.80;99.90;;;;;;4917332;29;20418;-76
2021/09/04 08:12:20;;;;;;;5.10;3.53;;;16.00;99.90;;;;;;4916913;29;20812;-77
2021/09/04 08:14:48;;;;;;;8.43;3.67;;;16.20;99.90;;;;;;4901196;29;20445;-77
2021/09/04 08:17:16;;;;;;;2.43;1.60;;;16.40;99.90;;;;;;4921684;29;20420;-77
2021/09/04 08:19:44;;;;;;;4.70;2.90;;;16.50;99.90;;;;;;4901244;29;20437;-77
2021/09/04 08:22:14;;;;;;;3.90;2.93;;;16.80;99.90;;;;;;4920146;29;20393;-76
2021/09/04 08:24:42;;;;;;;2.13;2.03;;;17.10;99.90;;;;;;4919992;29;20408;-78
2021/09/04 08:27:10;;;;;;;5.03;3.60;;;17.10;1.00;;;;;;4920064;29;20453;-78
2021/09/04 08:29:38;;;;;;;3.47;2.10;;;17.10;1.00;;;;;;4904252;29;20412;-79
2021/09/04 08:32:07;;;;;;;4.67;3.67;;;17.00;1.00;;;;;;4921756;29;20411;-78
2021/09/04 08:34:35;;;;;;;3.13;2.83;;;16.90;1.00;;;;;;4919715;29;20444;-77
2021/09/04 08:37:04;;;;;;;4.37;1.50;;;16.90;1.00;;;;;;4921499;29;20479;-77
2021/09/04 08:39:34;;;;;;;4.93;2.03;;;16.70;1.00;;;;;;4918590;29;20781;-77
2021/09/04 08:42:02;;;;;;;3.03;2.73;;;16.50;99.90;;;;;;4902093;29;20508;-77
2021/09/04 08:44:30;;;;;;;3.03;2.07;;;16.30;1.00;;;;;;4916788;29;20516;-77
2021/09/04 08:46:58;;;;;;;3.90;2.20;;;16.40;1.00;;;;;;4919043;29;20416;-77
2021/09/04 08:49:27;;;;;;;2.10;1.17;;;16.40;1.00;;;;;;4917084;29;20451;-76
2021/09/04 08:51:55;;;;;;;3.60;1.57;;;16.60;99.90;;;;;;4918406;29;20447;-78
2021/09/04 08:54:24;;;;;;;4.27;3.23;;;16.40;99.90;;;;;;4901583;29;20455;-76
2021/09/04 08:56:53;;;;;;;2.40;1.53;;;16.40;99.90;;;;;;4948167;23;20527;-76
2021/09/04 08:59:21;;;;;;;3.53;2.10;;;16.30;99.90;;;;;;4915533;29;20418;-74
2021/09/04 09:01:49;;;;;;;4.97;2.60;;;16.40;99.90;;;;;;4916305;29;20995;-75
2021/09/04 09:04:19;;;;;;;2.97;1.97;;;16.50;99.90;;;;;;4915727;29;20404;-75
2021/09/04 09:06:48;;;;;;;3.37;1.83;;;16.50;99.90;;;;;;4915379;29;20479;-75
2021/09/04 09:09:17;;;;;;;3.40;3.10;;;16.60;99.90;;;;;;4915420;29;20435;-75
2021/09/04 09:11:46;;;;;;;5.47;1.90;;;16.80;99.90;;;;;;4899151;29;20469;-75
2021/09/04 09:14:16;;;;;;;3.90;2.60;;;17.00;99.90;;;;;;4918980;29;20473;-76
2021/09/04 09:16:54;;;;;;;4.70;1.80;;;17.00;99.90;;;;;;4919194;29;20428;-76
2021/09/04 09:19:26;;;;;;;3.60;2.57;;;17.00;99.90;;;;;;4918951;29;20777;-75
2021/09/04 09:21:56;;;;;;;4.20;2.07;;;17.00;99.90;;;;;;4919043;29;20433;-75
2021/09/04 09:24:27;;;;;;;8.77;3.07;;;17.20;99.90;;;;;;4920810;29;20407;-75
2021/09/04 09:26:56;;;;;;;3.07;1.80;;;17.40;99.90;;;;;;4923436;29;20424;-76
2021/09/04 09:29:30;;;;;;;3.10;2.50;;;17.40;99.90;;;;;;4923547;29;20392;-78
2021/09/04 09:32:03;;;;;;;3.90;1.63;;;17.40;99.90;;;;;;4906308;29;20443;-76
2021/09/04 09:34:35;;;;;;;1.80;1.30;;;17.20;99.90;;;;;;4921116;29;20439;-76
2021/09/04 09:37:04;;;;;;;4.00;2.10;;;17.20;99.90;;;;;;4922420;29;20448;-75
2021/09/04 09:39:34;;;;;;;2.57;2.33;;;17.20;99.90;;;;;;4924055;29;20419;-76
2021/09/04 09:42:04;;;;;;;4.87;4.43;;;17.30;99.90;;;;;;4923978;29;20392;-76
2021/09/04 09:44:35;;;;;;;4.33;2.37;;;17.40;99.90;;;;;;4922535;29;20429;-77
2021/09/04 09:47:05;;;;;;;4.00;1.90;;;17.50;99.90;;;;;;4903790;29;20496;-77
2021/09/04 09:49:35;;;;;;;2.37;1.90;;;17.60;99.90;;;;;;4918740;29;20396;-77
2021/09/04 09:52:09;;;;;;;2.73;2.00;;;17.50;99.90;;;;;;4901596;29;20439;-77
2021/09/04 09:54:38;;;;;;;4.70;3.53;;;17.50;99.90;;;;;;4918656;29;20451;-75
2021/09/04 09:57:07;;;;;;;3.60;3.27;;;17.40;99.90;;;;;;4919127;29;20468;-76
2021/09/04 09:59:38;;;;;;;4.83;3.20;;;17.30;99.90;;;;;;4920904;29;20488;-75
2021/09/04 10:02:08;;;;;;;2.80;1.60;;;17.30;99.90;;;;;;4919219;29;20501;-76
2021/09/04 10:04:39;;;;;;;2.37;1.57;;;17.40;99.90;;;;;;4918282;29;20564;-75
2021/09/04 10:07:09;;;;;;;8.07;2.67;;;17.50;99.90;;;;;;4918175;29;20458;-73
2021/09/04 10:09:39;;;;;;;1.93;1.70;;;17.50;99.90;;;;;;4918643;29;20803;-75
2021/09/04 10:12:08;;;;;;;3.50;2.87;;;17.50;99.90;;;;;;4917278;29;20489;-74
2021/09/04 10:14:39;;;;;;;3.23;2.80;;;17.50;99.90;;;;;;4917195;29;20436;-74
2021/09/04 10:17:07;;;;;;;2.50;2.10;;;17.50;99.90;;;;;;4918108;29;20412;-74
2021/09/04 10:19:39;;;;;;;3.23;2.47;;;17.50;99.90;;;;;;4918906;29;20422;-75
2021/09/04 10:22:09;;;;;;;4.20;2.77;;;17.50;99.90;;;;;;4918415;29;20395;-75
2021/09/04 10:24:51;;;;;;;2.30;2.10;;;17.60;99.90;;;;;;4918414;29;20459;-74
2021/09/04 10:27:31;;;;;;;2.43;2.07;;;17.60;99.90;;;;;;4918172;29;20514;-73
2021/09/04 10:30:21;;;;;;;3.30;2.40;;;17.60;99.90;;;;;;4917793;29;20495;-74
2021/09/04 10:32:57;;;;;;;4.27;2.47;;;17.70;99.90;;;;;;4923876;29;20453;-74
2021/09/04 10:35:43;;;;;;;3.27;2.70;;;17.90;99.90;;;;;;4936599;29;20910;-74
2021/09/04 10:38:33;;;;;;;3.67;2.30;;;18.10;99.90;;;;;;4936197;29;20458;-74
2021/09/04 10:41:17;;;;;;;3.07;2.33;;;18.20;99.90;;;;;;4931333;29;20448;-74
2021/09/04 10:43:47;;;;;;;3.43;1.43;;;18.30;99.90;;;;;;4935055;29;20422;-73
2021/09/04 10:46:19;;;;;;;5.27;3.53;;;18.30;99.90;;;;;;4936327;29;20499;-74
2021/09/04 10:49:03;;;;;;;2.87;2.50;;;18.20;99.90;;;;;;4936446;29;20447;-73
2021/09/04 10:51:51;;;;;;;1.60;1.03;;;18.10;99.90;;;;;;4935139;29;20455;-73
2021/09/04 10:54:56;;;;;;;3.37;1.77;;;17.90;99.90;;;;;;4927433;29;20803;-74
2021/09/04 10:57:24;;;;;;;4.13;2.87;;;17.90;99.90;;;;;;4897924;29;20469;-75
2021/09/04 11:00:06;;;;;;;3.83;3.40;;;17.90;99.90;;;;;;4898965;29;20812;-73
2021/09/04 11:02:53;;;;;;;4.03;2.63;;;18.10;99.90;;;;;;4898688;29;20393;-75
2021/09/04 11:05:52;;;;;;;5.90;4.40;;;18.40;99.90;;;;;;4898357;29;20975;-76
2021/09/04 11:08:34;;;;;;;6.27;3.47;;;18.70;99.90;;;;;;4898216;29;20426;-73
2021/09/04 11:11:12;;;;;;;4.83;3.27;;;19.10;99.90;;;;;;4898008;29;20953;-74
2021/09/04 11:13:46;;;;;;;5.80;2.53;;;19.30;99.90;;;;;;4904109;29;20447;-73
2021/09/04 11:16:52;;;;;;;2.93;2.27;;;19.10;99.90;;;;;;4918874;29;20450;-72
2021/09/04 11:19:23;;;;;;;3.23;2.93;;;19.00;99.90;;;;;;4926298;29;20429;-74
2021/09/04 11:21:55;;;;;;;2.00;1.77;;;19.00;99.90;;;;;;4899501;29;20420;-73
2021/09/04 11:24:32;;;;;;;3.87;2.60;;;19.20;99.90;;;;;;4916892;29;20496;-73
2021/09/04 11:27:06;;;;;;;6.47;2.80;;;19.50;99.90;;;;;;4916049;29;20958;-73
2021/09/04 11:29:44;;;;;;;4.40;2.93;;;19.90;99.90;;;;;;4915460;29;20777;-73
2021/09/04 11:32:13;;;;;;;8.37;4.57;;;20.10;99.90;;;;;;4916304;29;20914;-73
2021/09/04 11:34:50;;;;;;;9.40;3.57;;;20.10;99.90;;;;;;4915503;29;20556;-74
2021/09/04 11:37:31;;;;;;;6.77;2.50;;;20.30;99.90;;;;;;4916149;29;20984;-73
2021/09/04 11:40:02;;;;;;;4.30;2.43;;;20.40;99.90;;;;;;4916109;29;20512;-74
2021/09/04 11:42:32;;;;;;;2.43;1.90;;;20.60;99.90;;;;;;4915993;29;20487;-73
2021/09/04 11:45:01;;;;;;;3.93;1.97;;;20.70;99.90;;;;;;4916162;29;20491;-73
2021/09/04 11:47:30;;;;;;;2.87;1.90;;;20.80;99.90;;;;;;4915908;29;20441;-75
2021/09/04 11:50:01;;;;;;;4.47;2.20;;;21.10;99.90;;;;;;4915890;29;20563;-73
2021/09/04 11:52:31;;;;;;;5.17;2.40;;;21.10;99.90;;;;;;4916114;29;20973;-74
2021/09/04 11:55:14;;;;;;;2.60;1.97;;;21.10;99.90;;;;;;4915735;29;20452;-73
2021/09/04 11:57:44;;;;;;;5.50;2.07;;;20.50;99.90;;;;;;4915662;29;20468;-74
2021/09/04 12:00:17;;;;;;;2.43;2.23;;;20.30;99.90;;;;;;4916000;29;20786;-74
2021/09/04 12:02:51;;;;;;;3.87;2.13;;;20.10;99.90;;;;;;4915804;29;20456;-75
2021/09/04 12:05:23;;;;;;;6.63;2.40;;;19.90;99.90;;;;;;4915891;29;20812;-73
2021/09/04 12:07:54;;;;;;;3.50;1.80;;;19.80;99.90;;;;;;4915905;29;20471;-73
2021/09/04 12:10:25;;;;;;;2.90;1.90;;;19.90;99.90;;;;;;4915877;29;20426;-73
2021/09/04 12:12:58;;;;;;;4.43;2.70;;;20.00;99.90;;;;;;4915814;29;20472;-73
2021/09/04 12:15:28;;;;;;;4.03;2.07;;;19.70;99.90;;;;;;4917532;29;20496;-74
2021/09/04 12:17:57;;;;;;;3.83;2.30;;;19.70;99.90;;;;;;4918665;29;20862;-74
2021/09/04 12:20:32;;;;;;;2.20;1.77;;;19.80;99.90;;;;;;4916633;29;20449;-73
2021/09/04 12:23:12;;;;;;;2.03;1.57;;;19.90;99.90;;;;;;4915734;29;20535;-73
2021/09/04 12:25:41;;;;;;;2.03;1.63;;;20.00;99.90;;;;;;4915769;29;20429;-73
2021/09/04 12:28:11;;;;;;;5.60;3.10;;;19.70;99.90;;;;;;4915742;29;20850;-73
2021/09/04 12:31:06;;;;;;;2.70;1.30;;;19.40;99.90;;;;;;4915402;29;20404;-73
2021/09/04 12:33:56;;;;;;;2.93;2.67;;;19.20;99.90;;;;;;4915753;29;20429;-73
2021/09/04 12:36:37;;;;;;;4.80;2.77;;;19.10;99.90;;;;;;4916160;29;21044;-74
2021/09/04 12:39:15;;;;;;;4.77;2.80;;;19.20;99.90;;;;;;4916066;29;20451;-74
2021/09/04 12:41:43;;;;;;;4.00;2.80;;;19.40;99.90;;;;;;4916181;29;20415;-74
2021/09/04 12:44:14;;;;;;;4.00;1.80;;;19.50;99.90;;;;;;4915639;29;20468;-73
2021/09/04 12:46:43;;;;;;;4.30;2.27;;;19.70;99.90;;;;;;4900793;29;20552;-73
2021/09/04 12:49:21;;;;;;;4.27;1.30;;;19.80;99.90;;;;;;4919200;29;20396;-73
2021/09/04 12:52:06;;;;;;;2.60;1.93;;;19.80;99.90;;;;;;4919395;29;20414;-74
2021/09/04 12:54:36;;;;;;;5.30;2.77;;;19.90;99.90;;;;;;4918998;29;20822;-73
2021/09/04 12:57:14;;;;;;;5.20;2.37;;;20.00;99.90;;;;;;4919284;29;20460;-74
2021/09/04 12:59:47;;;;;;;5.40;2.40;;;20.10;99.90;;;;;;4934393;29;20444;-72
2021/09/04 13:02:18;;;;;;;2.87;2.57;;;20.10;99.90;;;;;;4938017;29;20407;-75
2021/09/04 13:04:46;;;;;;;7.33;2.70;;;19.80;99.90;;;;;;4906222;29;20434;-73